sensor_id;sensor_type;location;lat;lon;timestamp;P1;durP1;ratioP1;P2;durP2;ratioP2
51374;SDS011;37465;52.738;4.752;2022-12-20T00:01:49;6.10;;;3.70;;
51374;SDS011;37465;52.738;4.752;2022-12-20T00:04:17;5.40;;;3.40;;
51374;SDS011;37465;52.738;4.752;2022-12-20T00:06:45;5.53;;;4.03;;
51374;SDS011;37465;52.738;4.752;2022-12-20T00:09:12;6.72;;;4.05;;
51374;SDS011;37465;52.738;4.752;2022-12-20T00:11:40;6.82;;;3.95;;
51374;SDS011;37465;52.738;4.752;2022-12-20T00:14:10;5.03;;;3.60;;
51374;SDS011;37465;52.738;4.752;2022-12-20T00:16:37;5.30;;;3.50;;
51374;SDS011;37465;52.738;4.752;2022-12-20T00:19:05;5.18;;;3.40;;
51374;SDS011;37465;52.738;4.752;2022-12-20T00:21:33;5.70;;;3.40;;
51374;SDS011;37465;52.738;4.752;2022-12-20T00:24:01;6.03;;;3.03;;
51374;SDS011;37465;52.738;4.752;2022-12-20T00:26:31;5.97;;;3.33;;
51374;SDS011;37465;52.738;4.752;2022-12-20T00:29:00;4.72;;;3.00;;
51374;SDS011;37465;52.738;4.752;2022-12-20T00:31:29;5.40;;;3.00;;
51374;SDS011;37465;52.738;4.752;2022-12-20T00:33:58;4.90;;;3.00;;
51374;SDS011;37465;52.738;4.752;2022-12-20T00:36:27;4.80;;;3.22;;
51374;SDS011;37465;52.738;4.752;2022-12-20T00:38:55;6.88;;;3.15;;
51374;SDS011;37465;52.738;4.752;2022-12-20T00:41:26;5.15;;;3.25;;
51374;SDS011;37465;52.738;4.752;2022-12-20T00:43:54;4.68;;;3.20;;
51374;SDS011;37465;52.738;4.752;2022-12-20T00:46:23;5.68;;;3.50;;
51374;SDS011;37465;52.738;4.752;2022-12-20T00:48:52;7.37;;;4.10;;
51374;SDS011;37465;52.738;4.752;2022-12-20T00:51:21;6.18;;;3.47;;
51374;SDS011;37465;52.738;4.752;2022-12-20T00:53:50;5.10;;;3.30;;
51374;SDS011;37465;52.738;4.752;2022-12-20T00:56:18;3.50;;;2.83;;
51374;SDS011;37465;52.738;4.752;2022-12-20T00:58:46;4.80;;;3.20;;
51374;SDS011;37465;52.738;4.752;2022-12-20T01:01:15;6.97;;;3.47;;
51374;SDS011;37465;52.738;4.752;2022-12-20T01:03:45;5.15;;;3.35;;
51374;SDS011;37465;52.738;4.752;2022-12-20T01:06:14;5.50;;;3.22;;
51374;SDS011;37465;52.738;4.752;2022-12-20T01:08:42;6.40;;;3.53;;
51374;SDS011;37465;52.738;4.752;2022-12-20T01:11:10;5.40;;;3.42;;
51374;SDS011;37465;52.738;4.752;2022-12-20T01:13:40;5.65;;;3.30;;
51374;SDS011;37465;52.738;4.752;2022-12-20T01:16:10;5.80;;;3.20;;
51374;SDS011;37465;52.738;4.752;2022-12-20T01:18:38;6.03;;;3.35;;
51374;SDS011;37465;52.738;4.752;2022-12-20T01:21:08;4.65;;;3.17;;
51374;SDS011;37465;52.738;4.752;2022-12-20T01:23:38;5.15;;;3.30;;
51374;SDS011;37465;52.738;4.752;2022-12-20T01:26:07;5.85;;;3.85;;
51374;SDS011;37465;52.738;4.752;2022-12-20T01:28:38;5.03;;;3.65;;
51374;SDS011;37465;52.738;4.752;2022-12-20T01:31:07;4.82;;;3.50;;
51374;SDS011;37465;52.738;4.752;2022-12-20T01:33:35;5.80;;;4.13;;
51374;SDS011;37465;52.738;4.752;2022-12-20T01:36:03;6.10;;;4.10;;
51374;SDS011;37465;52.738;4.752;2022-12-20T01:38:32;7.28;;;4.57;;
51374;SDS011;37465;52.738;4.752;2022-12-20T01:41:02;6.05;;;4.10;;
51374;SDS011;37465;52.738;4.752;2022-12-20T01:43:43;5.43;;;4.22;;
51374;SDS011;37465;52.738;4.752;2022-12-20T01:46:13;5.93;;;4.63;;
51374;SDS011;37465;52.738;4.752;2022-12-20T01:48:41;5.57;;;4.57;;
51374;SDS011;37465;52.738;4.752;2022-12-20T01:51:11;6.90;;;4.63;;
51374;SDS011;37465;52.738;4.752;2022-12-20T01:53:39;6.85;;;4.60;;
51374;SDS011;37465;52.738;4.752;2022-12-20T01:56:08;4.70;;;4.30;;
51374;SDS011;37465;52.738;4.752;2022-12-20T01:58:37;6.32;;;4.28;;
51374;SDS011;37465;52.738;4.752;2022-12-20T02:01:05;6.28;;;4.53;;
51374;SDS011;37465;52.738;4.752;2022-12-20T02:03:32;6.38;;;4.68;;
51374;SDS011;37465;52.738;4.752;2022-12-20T02:06:11;5.30;;;4.50;;
51374;SDS011;37465;52.738;4.752;2022-12-20T02:08:41;5.85;;;4.68;;
51374;SDS011;37465;52.738;4.752;2022-12-20T02:11:13;6.80;;;4.83;;
51374;SDS011;37465;52.738;4.752;2022-12-20T02:13:50;5.60;;;4.40;;
51374;SDS011;37465;52.738;4.752;2022-12-20T02:16:28;5.97;;;4.60;;
51374;SDS011;37465;52.738;4.752;2022-12-20T02:18:59;5.70;;;4.55;;
51374;SDS011;37465;52.738;4.752;2022-12-20T02:21:30;6.80;;;4.70;;
51374;SDS011;37465;52.738;4.752;2022-12-20T02:27:13;5.47;;;4.75;;
51374;SDS011;37465;52.738;4.752;2022-12-20T02:29:59;6.05;;;4.65;;
51374;SDS011;37465;52.738;4.752;2022-12-20T02:32:38;7.22;;;4.85;;
51374;SDS011;37465;52.738;4.752;2022-12-20T02:35:09;6.18;;;4.97;;
51374;SDS011;37465;52.738;4.752;2022-12-20T02:37:45;5.83;;;4.53;;
51374;SDS011;37465;52.738;4.752;2022-12-20T02:40:14;5.28;;;4.47;;
51374;SDS011;37465;52.738;4.752;2022-12-20T02:42:44;5.65;;;4.88;;
51374;SDS011;37465;52.738;4.752;2022-12-20T02:45:14;6.38;;;4.68;;
51374;SDS011;37465;52.738;4.752;2022-12-20T02:47:43;6.00;;;4.53;;
51374;SDS011;37465;52.738;4.752;2022-12-20T02:50:15;5.87;;;4.80;;
51374;SDS011;37465;52.738;4.752;2022-12-20T02:52:45;5.45;;;4.90;;
51374;SDS011;37465;52.738;4.752;2022-12-20T02:55:13;6.90;;;5.03;;
51374;SDS011;37465;52.738;4.752;2022-12-20T02:57:42;7.03;;;5.32;;
51374;SDS011;37465;52.738;4.752;2022-12-20T03:00:14;6.00;;;4.97;;
51374;SDS011;37465;52.738;4.752;2022-12-20T03:02:43;6.57;;;5.50;;
51374;SDS011;37465;52.738;4.752;2022-12-20T03:05:32;7.65;;;6.10;;
51374;SDS011;37465;52.738;4.752;2022-12-20T03:08:01;6.88;;;5.70;;
51374;SDS011;37465;52.738;4.752;2022-12-20T03:10:28;6.68;;;5.70;;
51374;SDS011;37465;52.738;4.752;2022-12-20T03:12:56;6.65;;;5.72;;
51374;SDS011;37465;52.738;4.752;2022-12-20T03:15:25;7.05;;;6.05;;
51374;SDS011;37465;52.738;4.752;2022-12-20T03:17:53;6.95;;;6.15;;
51374;SDS011;37465;52.738;4.752;2022-12-20T03:20:20;8.43;;;6.13;;
51374;SDS011;37465;52.738;4.752;2022-12-20T03:22:48;8.82;;;6.45;;
51374;SDS011;37465;52.738;4.752;2022-12-20T03:25:16;7.47;;;6.45;;
51374;SDS011;37465;52.738;4.752;2022-12-20T03:27:44;7.10;;;6.40;;
51374;SDS011;37465;52.738;4.752;2022-12-20T03:30:12;7.53;;;6.20;;
51374;SDS011;37465;52.738;4.752;2022-12-20T03:32:43;9.25;;;6.47;;
51374;SDS011;37465;52.738;4.752;2022-12-20T03:35:11;7.30;;;6.60;;
51374;SDS011;37465;52.738;4.752;2022-12-20T03:37:39;7.38;;;6.68;;
51374;SDS011;37465;52.738;4.752;2022-12-20T03:40:07;7.25;;;6.38;;
51374;SDS011;37465;52.738;4.752;2022-12-20T03:42:35;8.43;;;6.47;;
51374;SDS011;37465;52.738;4.752;2022-12-20T03:45:04;8.03;;;6.43;;
51374;SDS011;37465;52.738;4.752;2022-12-20T03:47:32;7.68;;;6.75;;
51374;SDS011;37465;52.738;4.752;2022-12-20T03:50:01;7.10;;;6.40;;
51374;SDS011;37465;52.738;4.752;2022-12-20T03:52:29;8.43;;;6.32;;
51374;SDS011;37465;52.738;4.752;2022-12-20T03:54:56;8.15;;;6.22;;
51374;SDS011;37465;52.738;4.752;2022-12-20T03:57:24;8.57;;;6.75;;
51374;SDS011;37465;52.738;4.752;2022-12-20T03:59:52;7.50;;;6.25;;
51374;SDS011;37465;52.738;4.752;2022-12-20T04:02:20;7.28;;;6.43;;
51374;SDS011;37465;52.738;4.752;2022-12-20T04:04:49;7.60;;;6.10;;
51374;SDS011;37465;52.738;4.752;2022-12-20T04:07:17;7.95;;;6.15;;
51374;SDS011;37465;52.738;4.752;2022-12-20T04:09:45;7.25;;;5.80;;
51374;SDS011;37465;52.738;4.752;2022-12-20T04:12:13;8.07;;;6.30;;
51374;SDS011;37465;52.738;4.752;2022-12-20T04:14:40;7.32;;;5.95;;
51374;SDS011;37465;52.738;4.752;2022-12-20T04:17:08;8.75;;;5.80;;
51374;SDS011;37465;52.738;4.752;2022-12-20T04:19:36;6.20;;;5.60;;
51374;SDS011;37465;52.738;4.752;2022-12-20T04:22:03;7.03;;;5.60;;
51374;SDS011;37465;52.738;4.752;2022-12-20T04:24:33;7.40;;;5.80;;
51374;SDS011;37465;52.738;4.752;2022-12-20T04:27:00;7.00;;;5.38;;
51374;SDS011;37465;52.738;4.752;2022-12-20T04:29:28;5.90;;;5.25;;
51374;SDS011;37465;52.738;4.752;2022-12-20T04:31:56;5.47;;;4.82;;
51374;SDS011;37465;52.738;4.752;2022-12-20T04:34:24;6.00;;;5.32;;
51374;SDS011;37465;52.738;4.752;2022-12-20T04:36:51;6.05;;;5.35;;
51374;SDS011;37465;52.738;4.752;2022-12-20T04:39:19;5.85;;;5.20;;
51374;SDS011;37465;52.738;4.752;2022-12-20T04:41:48;6.45;;;5.60;;
51374;SDS011;37465;52.738;4.752;2022-12-20T04:44:16;6.45;;;5.30;;
51374;SDS011;37465;52.738;4.752;2022-12-20T04:46:43;6.35;;;5.10;;
51374;SDS011;37465;52.738;4.752;2022-12-20T04:49:11;5.85;;;5.20;;
51374;SDS011;37465;52.738;4.752;2022-12-20T04:51:39;5.95;;;5.28;;
51374;SDS011;37465;52.738;4.752;2022-12-20T04:54:06;7.57;;;5.40;;
51374;SDS011;37465;52.738;4.752;2022-12-20T04:56:33;7.75;;;5.55;;
51374;SDS011;37465;52.738;4.752;2022-12-20T04:59:02;5.50;;;5.00;;
51374;SDS011;37465;52.738;4.752;2022-12-20T05:01:30;5.75;;;5.00;;
51374;SDS011;37465;52.738;4.752;2022-12-20T05:03:58;6.97;;;5.22;;
51374;SDS011;37465;52.738;4.752;2022-12-20T05:06:25;5.35;;;4.85;;
51374;SDS011;37465;52.738;4.752;2022-12-20T05:08:53;6.10;;;5.05;;
51374;SDS011;37465;52.738;4.752;2022-12-20T05:11:21;5.45;;;4.47;;
51374;SDS011;37465;52.738;4.752;2022-12-20T05:13:48;7.33;;;4.73;;
51374;SDS011;37465;52.738;4.752;2022-12-20T05:16:17;5.93;;;4.63;;
51374;SDS011;37465;52.738;4.752;2022-12-20T05:18:45;5.75;;;4.40;;
51374;SDS011;37465;52.738;4.752;2022-12-20T05:21:14;5.43;;;4.50;;
51374;SDS011;37465;52.738;4.752;2022-12-20T05:24:00;5.35;;;4.60;;
51374;SDS011;37465;52.738;4.752;2022-12-20T05:26:45;5.73;;;4.60;;
51374;SDS011;37465;52.738;4.752;2022-12-20T05:29:13;6.00;;;4.70;;
51374;SDS011;37465;52.738;4.752;2022-12-20T05:31:43;6.03;;;5.03;;
51374;SDS011;37465;52.738;4.752;2022-12-20T05:34:11;6.53;;;4.72;;
51374;SDS011;37465;52.738;4.752;2022-12-20T05:36:38;4.80;;;4.33;;
51374;SDS011;37465;52.738;4.752;2022-12-20T05:39:06;5.20;;;4.47;;
51374;SDS011;37465;52.738;4.752;2022-12-20T05:41:34;6.22;;;4.75;;
51374;SDS011;37465;52.738;4.752;2022-12-20T05:44:01;6.60;;;4.25;;
51374;SDS011;37465;52.738;4.752;2022-12-20T05:46:29;5.32;;;4.38;;
51374;SDS011;37465;52.738;4.752;2022-12-20T05:48:58;5.03;;;4.13;;
51374;SDS011;37465;52.738;4.752;2022-12-20T05:51:25;5.38;;;4.30;;
51374;SDS011;37465;52.738;4.752;2022-12-20T05:53:53;5.32;;;4.60;;
51374;SDS011;37465;52.738;4.752;2022-12-20T05:56:21;6.93;;;4.50;;
51374;SDS011;37465;52.738;4.752;2022-12-20T05:58:48;5.90;;;4.47;;
51374;SDS011;37465;52.738;4.752;2022-12-20T06:01:16;5.13;;;4.60;;
51374;SDS011;37465;52.738;4.752;2022-12-20T06:03:43;5.90;;;4.63;;
51374;SDS011;37465;52.738;4.752;2022-12-20T06:06:13;6.07;;;4.77;;
51374;SDS011;37465;52.738;4.752;2022-12-20T06:08:41;6.38;;;4.70;;
51374;SDS011;37465;52.738;4.752;2022-12-20T06:11:08;5.90;;;4.70;;
51374;SDS011;37465;52.738;4.752;2022-12-20T06:13:36;5.85;;;4.45;;
51374;SDS011;37465;52.738;4.752;2022-12-20T06:16:04;5.55;;;4.68;;
51374;SDS011;37465;52.738;4.752;2022-12-20T06:18:32;6.57;;;4.75;;
51374;SDS011;37465;52.738;4.752;2022-12-20T06:21:00;6.05;;;5.20;;
51374;SDS011;37465;52.738;4.752;2022-12-20T06:23:29;7.05;;;5.22;;
51374;SDS011;37465;52.738;4.752;2022-12-20T06:25:57;7.20;;;5.53;;
51374;SDS011;37465;52.738;4.752;2022-12-20T06:28:25;6.13;;;5.35;;
51374;SDS011;37465;52.738;4.752;2022-12-20T06:30:53;6.35;;;5.50;;
51374;SDS011;37465;52.738;4.752;2022-12-20T06:33:21;6.70;;;5.82;;
51374;SDS011;37465;52.738;4.752;2022-12-20T06:35:49;6.00;;;5.40;;
51374;SDS011;37465;52.738;4.752;2022-12-20T06:38:17;6.18;;;5.15;;
51374;SDS011;37465;52.738;4.752;2022-12-20T06:40:46;6.20;;;5.20;;
51374;SDS011;37465;52.738;4.752;2022-12-20T06:43:14;8.02;;;5.07;;
51374;SDS011;37465;52.738;4.752;2022-12-20T06:45:42;5.68;;;4.95;;
51374;SDS011;37465;52.738;4.752;2022-12-20T06:48:10;6.45;;;4.70;;
51374;SDS011;37465;52.738;4.752;2022-12-20T06:50:38;5.22;;;4.25;;
51374;SDS011;37465;52.738;4.752;2022-12-20T06:53:06;7.38;;;4.50;;
51374;SDS011;37465;52.738;4.752;2022-12-20T06:55:34;6.30;;;4.20;;
51374;SDS011;37465;52.738;4.752;2022-12-20T06:58:03;5.25;;;4.00;;
51374;SDS011;37465;52.738;4.752;2022-12-20T07:00:31;4.88;;;4.03;;
51374;SDS011;37465;52.738;4.752;2022-12-20T07:02:59;5.85;;;3.95;;
51374;SDS011;37465;52.738;4.752;2022-12-20T07:05:27;6.43;;;3.88;;
51374;SDS011;37465;52.738;4.752;2022-12-20T07:07:54;5.55;;;3.80;;
51374;SDS011;37465;52.738;4.752;2022-12-20T07:10:22;5.30;;;3.90;;
51374;SDS011;37465;52.738;4.752;2022-12-20T07:12:50;5.25;;;4.00;;
51374;SDS011;37465;52.738;4.752;2022-12-20T07:15:20;5.33;;;3.70;;
51374;SDS011;37465;52.738;4.752;2022-12-20T07:17:48;5.68;;;4.20;;
51374;SDS011;37465;52.738;4.752;2022-12-20T07:20:16;4.95;;;3.80;;
51374;SDS011;37465;52.738;4.752;2022-12-20T07:22:46;4.72;;;3.60;;
51374;SDS011;37465;52.738;4.752;2022-12-20T07:25:14;5.07;;;3.63;;
51374;SDS011;37465;52.738;4.752;2022-12-20T07:27:42;5.40;;;3.60;;
51374;SDS011;37465;52.738;4.752;2022-12-20T07:30:10;4.47;;;3.42;;
51374;SDS011;37465;52.738;4.752;2022-12-20T07:32:39;5.85;;;3.72;;
51374;SDS011;37465;52.738;4.752;2022-12-20T07:35:08;5.15;;;3.80;;
51374;SDS011;37465;52.738;4.752;2022-12-20T07:37:36;4.13;;;3.65;;
51374;SDS011;37465;52.738;4.752;2022-12-20T07:40:05;4.90;;;3.85;;
51374;SDS011;37465;52.738;4.752;2022-12-20T07:42:34;5.75;;;4.10;;
51374;SDS011;37465;52.738;4.752;2022-12-20T07:45:08;5.57;;;4.22;;
51374;SDS011;37465;52.738;4.752;2022-12-20T07:47:36;6.13;;;4.25;;
51374;SDS011;37465;52.738;4.752;2022-12-20T07:50:06;5.50;;;4.40;;
51374;SDS011;37465;52.738;4.752;2022-12-20T07:52:35;6.50;;;4.30;;
51374;SDS011;37465;52.738;4.752;2022-12-20T07:55:04;5.40;;;4.30;;
51374;SDS011;37465;52.738;4.752;2022-12-20T07:57:34;6.18;;;4.82;;
51374;SDS011;37465;52.738;4.752;2022-12-20T08:00:04;5.55;;;4.20;;
51374;SDS011;37465;52.738;4.752;2022-12-20T08:02:35;5.32;;;4.35;;
51374;SDS011;37465;52.738;4.752;2022-12-20T08:05:06;4.93;;;4.10;;
51374;SDS011;37465;52.738;4.752;2022-12-20T08:07:34;5.43;;;4.23;;
51374;SDS011;37465;52.738;4.752;2022-12-20T08:10:04;6.47;;;4.00;;
51374;SDS011;37465;52.738;4.752;2022-12-20T08:12:33;6.65;;;4.13;;
51374;SDS011;37465;52.738;4.752;2022-12-20T08:15:01;4.43;;;3.70;;
51374;SDS011;37465;52.738;4.752;2022-12-20T08:17:29;4.60;;;3.80;;
51374;SDS011;37465;52.738;4.752;2022-12-20T08:19:57;5.25;;;4.30;;
51374;SDS011;37465;52.738;4.752;2022-12-20T08:22:27;5.43;;;3.95;;
51374;SDS011;37465;52.738;4.752;2022-12-20T08:24:55;4.20;;;3.80;;
51374;SDS011;37465;52.738;4.752;2022-12-20T08:27:22;5.65;;;4.03;;
51374;SDS011;37465;52.738;4.752;2022-12-20T08:29:50;4.95;;;3.75;;
51374;SDS011;37465;52.738;4.752;2022-12-20T08:32:18;5.25;;;3.95;;
51374;SDS011;37465;52.738;4.752;2022-12-20T08:34:46;4.97;;;3.75;;
51374;SDS011;37465;52.738;4.752;2022-12-20T08:37:15;6.38;;;3.90;;
51374;SDS011;37465;52.738;4.752;2022-12-20T08:39:44;5.43;;;3.90;;
51374;SDS011;37465;52.738;4.752;2022-12-20T08:42:12;4.82;;;3.80;;
51374;SDS011;37465;52.738;4.752;2022-12-20T08:44:40;5.65;;;3.75;;
51374;SDS011;37465;52.738;4.752;2022-12-20T08:47:08;5.65;;;3.40;;
51374;SDS011;37465;52.738;4.752;2022-12-20T08:49:36;5.32;;;3.60;;
51374;SDS011;37465;52.738;4.752;2022-12-20T08:52:12;5.53;;;3.75;;
51374;SDS011;37465;52.738;4.752;2022-12-20T08:54:40;5.80;;;3.40;;
51374;SDS011;37465;52.738;4.752;2022-12-20T08:57:09;4.20;;;3.13;;
51374;SDS011;37465;52.738;4.752;2022-12-20T08:59:37;5.63;;;2.95;;
51374;SDS011;37465;52.738;4.752;2022-12-20T09:02:05;5.88;;;3.67;;
51374;SDS011;37465;52.738;4.752;2022-12-20T09:04:33;5.30;;;3.47;;
51374;SDS011;37465;52.738;4.752;2022-12-20T09:07:01;4.15;;;3.00;;
51374;SDS011;37465;52.738;4.752;2022-12-20T09:09:29;3.65;;;2.90;;
51374;SDS011;37465;52.738;4.752;2022-12-20T09:11:57;5.03;;;2.95;;
51374;SDS011;37465;52.738;4.752;2022-12-20T09:14:26;4.55;;;2.95;;
51374;SDS011;37465;52.738;4.752;2022-12-20T09:16:54;3.67;;;2.80;;
51374;SDS011;37465;52.738;4.752;2022-12-20T09:19:22;4.82;;;2.92;;
51374;SDS011;37465;52.738;4.752;2022-12-20T09:21:50;5.13;;;3.08;;
51374;SDS011;37465;52.738;4.752;2022-12-20T09:24:18;5.17;;;3.10;;
51374;SDS011;37465;52.738;4.752;2022-12-20T09:26:46;4.90;;;3.10;;
51374;SDS011;37465;52.738;4.752;2022-12-20T09:29:16;4.93;;;3.10;;
51374;SDS011;37465;52.738;4.752;2022-12-20T09:31:53;3.97;;;3.10;;
51374;SDS011;37465;52.738;4.752;2022-12-20T09:34:21;6.33;;;3.30;;
51374;SDS011;37465;52.738;4.752;2022-12-20T09:36:50;3.87;;;2.80;;
51374;SDS011;37465;52.738;4.752;2022-12-20T09:39:18;4.90;;;2.95;;
51374;SDS011;37465;52.738;4.752;2022-12-20T09:41:46;4.75;;;3.08;;
51374;SDS011;37465;52.738;4.752;2022-12-20T09:44:15;3.63;;;2.80;;
51374;SDS011;37465;52.738;4.752;2022-12-20T09:46:52;6.37;;;3.50;;
51374;SDS011;37465;52.738;4.752;2022-12-20T09:49:24;4.57;;;2.92;;
51374;SDS011;37465;52.738;4.752;2022-12-20T09:51:58;5.13;;;3.10;;
51374;SDS011;37465;52.738;4.752;2022-12-20T09:54:38;3.97;;;2.80;;
51374;SDS011;37465;52.738;4.752;2022-12-20T09:57:11;5.05;;;3.40;;
51374;SDS011;37465;52.738;4.752;2022-12-20T09:59:44;5.73;;;3.17;;
51374;SDS011;37465;52.738;4.752;2022-12-20T10:02:18;6.37;;;3.47;;
51374;SDS011;37465;52.738;4.752;2022-12-20T10:05:08;3.90;;;2.97;;
51374;SDS011;37465;52.738;4.752;2022-12-20T10:07:41;5.35;;;3.10;;
51374;SDS011;37465;52.738;4.752;2022-12-20T10:10:22;4.68;;;2.80;;
51374;SDS011;37465;52.738;4.752;2022-12-20T10:13:01;5.05;;;3.20;;
51374;SDS011;37465;52.738;4.752;2022-12-20T10:15:37;4.88;;;3.10;;
51374;SDS011;37465;52.738;4.752;2022-12-20T10:18:12;5.10;;;3.03;;
51374;SDS011;37465;52.738;4.752;2022-12-20T10:20:51;4.90;;;3.30;;
51374;SDS011;37465;52.738;4.752;2022-12-20T10:23:26;4.40;;;2.70;;
51374;SDS011;37465;52.738;4.752;2022-12-20T10:25:59;4.63;;;2.72;;
51374;SDS011;37465;52.738;4.752;2022-12-20T10:28:28;5.20;;;3.03;;
51374;SDS011;37465;52.738;4.752;2022-12-20T10:30:57;4.90;;;3.10;;
51374;SDS011;37465;52.738;4.752;2022-12-20T10:33:27;5.40;;;2.92;;
51374;SDS011;37465;52.738;4.752;2022-12-20T10:38:52;5.43;;;3.20;;
51374;SDS011;37465;52.738;4.752;2022-12-20T10:41:21;4.63;;;3.08;;
51374;SDS011;37465;52.738;4.752;2022-12-20T10:43:52;6.15;;;3.20;;
51374;SDS011;37465;52.738;4.752;2022-12-20T10:46:22;4.47;;;2.97;;
51374;SDS011;37465;52.738;4.752;2022-12-20T10:49:20;6.38;;;2.90;;
51374;SDS011;37465;52.738;4.752;2022-12-20T10:51:51;6.47;;;3.40;;
51374;SDS011;37465;52.738;4.752;2022-12-20T10:54:21;5.07;;;3.10;;
51374;SDS011;37465;52.738;4.752;2022-12-20T10:56:53;8.27;;;3.60;;
51374;SDS011;37465;52.738;4.752;2022-12-20T10:59:27;5.95;;;3.00;;
51374;SDS011;37465;52.738;4.752;2022-12-20T11:01:58;7.45;;;3.30;;
51374;SDS011;37465;52.738;4.752;2022-12-20T11:04:28;7.78;;;3.40;;
51374;SDS011;37465;52.738;4.752;2022-12-20T11:06:58;9.73;;;3.70;;
51374;SDS011;37465;52.738;4.752;2022-12-20T11:09:28;6.53;;;3.40;;
51374;SDS011;37465;52.738;4.752;2022-12-20T11:12:01;8.00;;;3.40;;
51374;SDS011;37465;52.738;4.752;2022-12-20T11:14:31;7.10;;;3.58;;
51374;SDS011;37465;52.738;4.752;2022-12-20T11:17:05;8.18;;;3.58;;
51374;SDS011;37465;52.738;4.752;2022-12-20T11:22:37;5.63;;;3.03;;
51374;SDS011;37465;52.738;4.752;2022-12-20T11:25:16;8.30;;;3.38;;
51374;SDS011;37465;52.738;4.752;2022-12-20T11:27:52;9.03;;;3.30;;
51374;SDS011;37465;52.738;4.752;2022-12-20T11:30:27;7.60;;;3.58;;
51374;SDS011;37465;52.738;4.752;2022-12-20T11:33:06;8.47;;;3.10;;
51374;SDS011;37465;52.738;4.752;2022-12-20T11:35:47;9.48;;;3.38;;
51374;SDS011;37465;52.738;4.752;2022-12-20T11:38:22;7.25;;;3.42;;
51374;SDS011;37465;52.738;4.752;2022-12-20T11:41:03;6.97;;;3.30;;
51374;SDS011;37465;52.738;4.752;2022-12-20T11:43:41;6.83;;;3.10;;
51374;SDS011;37465;52.738;4.752;2022-12-20T11:46:39;7.43;;;3.30;;
51374;SDS011;37465;52.738;4.752;2022-12-20T11:49:28;7.60;;;3.07;;
51374;SDS011;37465;52.738;4.752;2022-12-20T11:52:34;6.25;;;3.10;;
51374;SDS011;37465;52.738;4.752;2022-12-20T11:55:06;7.37;;;3.30;;
51374;SDS011;37465;52.738;4.752;2022-12-20T11:57:47;7.35;;;3.53;;
51374;SDS011;37465;52.738;4.752;2022-12-20T12:00:43;6.88;;;3.58;;
51374;SDS011;37465;52.738;4.752;2022-12-20T12:03:16;7.25;;;3.47;;
51374;SDS011;37465;52.738;4.752;2022-12-20T12:05:48;7.80;;;3.40;;
51374;SDS011;37465;52.738;4.752;2022-12-20T12:08:20;7.45;;;3.60;;
51374;SDS011;37465;52.738;4.752;2022-12-20T12:10:57;10.07;;;3.83;;
51374;SDS011;37465;52.738;4.752;2022-12-20T12:13:27;9.45;;;3.90;;
51374;SDS011;37465;52.738;4.752;2022-12-20T12:15:57;7.00;;;3.95;;
51374;SDS011;37465;52.738;4.752;2022-12-20T12:18:29;9.02;;;3.83;;
51374;SDS011;37465;52.738;4.752;2022-12-20T12:20:59;8.38;;;3.70;;
51374;SDS011;37465;52.738;4.752;2022-12-20T12:23:38;7.93;;;3.67;;
51374;SDS011;37465;52.738;4.752;2022-12-20T12:26:11;7.70;;;3.85;;
51374;SDS011;37465;52.738;4.752;2022-12-20T12:28:41;9.00;;;4.05;;
51374;SDS011;37465;52.738;4.752;2022-12-20T12:31:10;10.18;;;3.83;;
51374;SDS011;37465;52.738;4.752;2022-12-20T12:33:40;7.18;;;3.75;;
51374;SDS011;37465;52.738;4.752;2022-12-20T12:39:12;7.85;;;4.20;;
51374;SDS011;37465;52.738;4.752;2022-12-20T12:41:59;9.27;;;3.88;;
51374;SDS011;37465;52.738;4.752;2022-12-20T12:44:36;7.70;;;4.10;;
51374;SDS011;37465;52.738;4.752;2022-12-20T12:47:09;9.85;;;4.65;;
51374;SDS011;37465;52.738;4.752;2022-12-20T12:49:41;11.03;;;4.73;;
51374;SDS011;37465;52.738;4.752;2022-12-20T12:52:23;9.15;;;4.13;;
51374;SDS011;37465;52.738;4.752;2022-12-20T12:55:02;9.77;;;4.78;;
51374;SDS011;37465;52.738;4.752;2022-12-20T12:57:31;14.40;;;5.07;;
51374;SDS011;37465;52.738;4.752;2022-12-20T13:03:15;9.05;;;4.20;;
51374;SDS011;37465;52.738;4.752;2022-12-20T13:05:43;11.00;;;4.50;;
51374;SDS011;37465;52.738;4.752;2022-12-20T13:08:15;11.45;;;4.30;;
51374;SDS011;37465;52.738;4.752;2022-12-20T13:13:39;10.30;;;4.63;;
51374;SDS011;37465;52.738;4.752;2022-12-20T13:16:10;11.38;;;4.40;;
51374;SDS011;37465;52.738;4.752;2022-12-20T13:18:56;11.35;;;5.00;;
51374;SDS011;37465;52.738;4.752;2022-12-20T13:21:42;10.98;;;4.88;;
51374;SDS011;37465;52.738;4.752;2022-12-20T13:27:30;10.40;;;4.50;;
51374;SDS011;37465;52.738;4.752;2022-12-20T13:35:57;11.95;;;5.50;;
51374;SDS011;37465;52.738;4.752;2022-12-20T13:38:48;10.98;;;5.18;;
51374;SDS011;37465;52.738;4.752;2022-12-20T13:41:20;11.27;;;5.30;;
51374;SDS011;37465;52.738;4.752;2022-12-20T13:44:02;11.90;;;5.50;;
51374;SDS011;37465;52.738;4.752;2022-12-20T13:46:39;12.13;;;6.00;;
51374;SDS011;37465;52.738;4.752;2022-12-20T13:49:09;14.25;;;6.30;;
51374;SDS011;37465;52.738;4.752;2022-12-20T13:51:38;11.97;;;6.70;;
51374;SDS011;37465;52.738;4.752;2022-12-20T13:54:07;13.77;;;6.90;;
51374;SDS011;37465;52.738;4.752;2022-12-20T13:56:48;12.75;;;7.00;;
51374;SDS011;37465;52.738;4.752;2022-12-20T13:59:19;13.88;;;7.28;;
51374;SDS011;37465;52.738;4.752;2022-12-20T14:01:51;13.32;;;7.68;;
51374;SDS011;37465;52.738;4.752;2022-12-20T14:04:21;16.85;;;7.63;;
51374;SDS011;37465;52.738;4.752;2022-12-20T14:06:49;16.40;;;8.38;;
51374;SDS011;37465;52.738;4.752;2022-12-20T14:09:29;14.95;;;8.00;;
51374;SDS011;37465;52.738;4.752;2022-12-20T14:12:03;15.18;;;8.43;;
51374;SDS011;37465;52.738;4.752;2022-12-20T14:14:36;14.10;;;7.80;;
51374;SDS011;37465;52.738;4.752;2022-12-20T14:17:14;14.88;;;7.93;;
51374;SDS011;37465;52.738;4.752;2022-12-20T14:19:43;13.32;;;7.53;;
51374;SDS011;37465;52.738;4.752;2022-12-20T14:22:11;16.58;;;8.35;;
51374;SDS011;37465;52.738;4.752;2022-12-20T14:24:39;19.23;;;8.60;;
51374;SDS011;37465;52.738;4.752;2022-12-20T14:27:09;17.02;;;9.02;;
51374;SDS011;37465;52.738;4.752;2022-12-20T14:29:40;18.63;;;9.20;;
51374;SDS011;37465;52.738;4.752;2022-12-20T14:32:16;18.17;;;9.20;;
51374;SDS011;37465;52.738;4.752;2022-12-20T14:34:44;15.70;;;9.02;;
51374;SDS011;37465;52.738;4.752;2022-12-20T14:37:16;15.27;;;9.23;;
51374;SDS011;37465;52.738;4.752;2022-12-20T14:39:54;13.65;;;8.88;;
51374;SDS011;37465;52.738;4.752;2022-12-20T14:42:28;20.20;;;10.10;;
51374;SDS011;37465;52.738;4.752;2022-12-20T14:45:05;18.48;;;9.45;;
51374;SDS011;37465;52.738;4.752;2022-12-20T14:47:47;17.70;;;9.38;;
51374;SDS011;37465;52.738;4.752;2022-12-20T14:50:17;18.75;;;9.70;;
51374;SDS011;37465;52.738;4.752;2022-12-20T14:52:47;17.52;;;9.25;;
51374;SDS011;37465;52.738;4.752;2022-12-20T14:55:15;16.27;;;9.32;;
51374;SDS011;37465;52.738;4.752;2022-12-20T14:57:45;19.05;;;10.00;;
51374;SDS011;37465;52.738;4.752;2022-12-20T15:00:20;18.52;;;9.80;;
51374;SDS011;37465;52.738;4.752;2022-12-20T15:02:50;17.40;;;10.43;;
51374;SDS011;37465;52.738;4.752;2022-12-20T15:05:37;20.35;;;11.00;;
51374;SDS011;37465;52.738;4.752;2022-12-20T15:08:11;22.00;;;10.73;;
51374;SDS011;37465;52.738;4.752;2022-12-20T15:10:40;17.45;;;10.13;;
51374;SDS011;37465;52.738;4.752;2022-12-20T15:13:12;19.35;;;10.68;;
51374;SDS011;37465;52.738;4.752;2022-12-20T15:15:42;20.55;;;11.45;;
51374;SDS011;37465;52.738;4.752;2022-12-20T15:18:11;23.08;;;12.15;;
51374;SDS011;37465;52.738;4.752;2022-12-20T15:20:40;22.58;;;11.73;;
51374;SDS011;37465;52.738;4.752;2022-12-20T15:23:11;22.05;;;11.57;;
51374;SDS011;37465;52.738;4.752;2022-12-20T15:25:41;22.17;;;11.70;;
51374;SDS011;37465;52.738;4.752;2022-12-20T15:28:12;20.23;;;10.93;;
51374;SDS011;37465;52.738;4.752;2022-12-20T15:30:42;25.35;;;11.88;;
51374;SDS011;37465;52.738;4.752;2022-12-20T15:33:15;22.83;;;10.93;;
51374;SDS011;37465;52.738;4.752;2022-12-20T15:35:44;24.77;;;12.80;;